NCAR-RAP Real-Time Weather Data

Output produced by METARs form (06 May 2021  14:59 UTC)
found at http://weather.rap.ucar.edu/surface/
 
KHLN 061453Z VRB03KT 10SM CLR 09/01 A3021 RMK AO2 SLP242 T00890006 58002
KHLN 061353Z 00000KT 10SM CLR 06/00 A3022 RMK AO2 SLP246 T00610000
KHLN 061253Z 00000KT 10SM CLR 04/M01 A3024 RMK AO2 SLP250 T00441006
KHLN 061153Z 26005KT 10SM CLR 03/M01 A3022 RMK AO2 SLP244 T00281011 10106 20028 56003
KHLN 061053Z 20004KT 10SM CLR 06/M01 A3022 RMK AO2 SLP243 T00561006
KHLN 060953Z 28005KT 10SM CLR 04/M01 A3022 RMK AO2 SLP244 T00441006
KHLN 060853Z 25006KT 10SM CLR 07/00 A3023 RMK AO2 SLP246 T00670000 58005
KHLN 060753Z 24006KT 10SM CLR 09/00 A3024 RMK AO2 SLP246 T00890000
KHLN 060653Z 25006KT 10SM CLR 11/00 A3024 RMK AO2 SLP246 T01060000 401940039
KHLN 060553Z 25007KT 10SM CLR 11/00 A3025 RMK AO2 SLP249 T01060000 10189 20100 50014
KHLN 060453Z 26008KT 10SM CLR 11/00 A3025 RMK AO2 SLP253 T01060000
KHLN 060353Z 29007KT 10SM CLR 12/00 A3024 RMK AO2 SLP248 T01170000
KHLN 060253Z 32007KT 10SM CLR 13/01 A3020 RMK AO2 SLP238 T01280006 53008
KHLN 060153Z 35009KT 10SM CLR 16/00 A3017 RMK AO2 SLP225 T01610000